Terminal Aerodrome Forecast
Issued by NWS

Home | Current Version | Previous Version | Text Only | Print | Product List | Glossary Off
Versions: 1 2 3 4 5 6 7 8 9 10 11 12 13 14 15 16 17 18 19 20 21 22 23 24 25 26 27

000
FTUS43 KABR 020500
TAFMBG
TAF
KMBG 020520Z 0206/0306 30005KT P6SM BKN200
     FM021600 29016KT P6SM SCT200
     FM021800 31017G27KT P6SM BKN200
     FM030200 32020KT P6SM SKC=

USA.gov is the U.S. government's official web portal to all federal, state and local government web resources and services.